Time;durP1;ratioP1;P1;durP2;ratioP2;P2;SDS_P1;SDS_P2;PMS_P1;PMS_P2;Temp;Humidity;BMP_temperature;BMP_pressure;BME280_temperature;BME280_humidity;BME280_pressure;Samples;Min_cycle;Max_cycle;Signal;HPM_P1;HPM_P2
2023/08/28 00:02:05;;;;;;;4.28;2.42;;;;;;;;;;5899698;28;20049;-73
2023/08/28 00:04:56;;;;;;;3.08;2.35;;;;;;;;;;5866008;28;20048;-73
2023/08/28 00:07:47;;;;;;;2.88;1.92;;;;;;;;;;5865949;28;20496;-72
2023/08/28 00:10:40;;;;;;;5.68;3.38;;;;;;;;;;5880173;28;20033;-73
2023/08/28 00:13:31;;;;;;;4.90;2.35;;;;;;;;;;5864658;28;20044;-73
2023/08/28 00:16:21;;;;;;;2.75;1.65;;;;;;;;;;5865306;28;20117;-72
2023/08/28 00:19:12;;;;;;;0.80;0.73;;;;;;;;;;5880873;28;20049;-72
2023/08/28 00:22:03;;;;;;;0.93;0.60;;;;;;;;;;5865639;28;20059;-72
2023/08/28 00:24:54;;;;;;;1.30;1.08;;;;;;;;;;5865443;28;20187;-72
2023/08/28 00:27:44;;;;;;;0.45;0.40;;;;;;;;;;5865410;28;20477;-73
2023/08/28 00:30:35;;;;;;;1.00;0.70;;;;;;;;;;5864868;28;20071;-72
2023/08/28 00:33:26;;;;;;;0.77;0.70;;;;;;;;;;5864224;28;20132;-72
2023/08/28 00:36:17;;;;;;;1.02;0.60;;;;;;;;;;5865000;28;20357;-72
2023/08/28 00:39:07;;;;;;;0.32;0.22;;;;;;;;;;5847567;28;20049;-72
2023/08/28 00:41:58;;;;;;;0.35;0.32;;;;;;;;;;5865358;28;20378;-72
2023/08/28 00:44:49;;;;;;;0.38;0.17;;;;;;;;;;5864884;28;20418;-72
2023/08/28 00:47:40;;;;;;;0.47;0.47;;;;;;;;;;5864923;28;20037;-73
2023/08/28 00:50:30;;;;;;;0.28;0.05;;;;;;;;;;5847081;28;20064;-73
2023/08/28 00:53:21;;;;;;;0.00;0.00;;;;;;;;;;5855260;28;20053;-72
2023/08/28 00:56:12;;;;;;;0.10;0.10;;;;;;;;;;5847130;28;20523;-72
2023/08/28 00:59:03;;;;;;;0.00;0.00;;;;;;;;;;5864665;28;20212;-73
2023/08/28 01:01:54;;;;;;;0.17;0.17;;;;;;;;;;5864869;28;20059;-72
2023/08/28 01:04:45;;;;;;;0.00;0.00;;;;;;;;;;5864363;28;20042;-73
2023/08/28 01:07:49;;;;;;;0.30;0.25;;;;;;;;;;5864574;28;20042;-73
2023/08/28 01:10:51;;;;;;;0.08;0.05;;;;;;;;;;5871305;28;20056;-72
2023/08/28 01:13:51;;;;;;;0.00;0.00;;;;;;;;;;5864339;28;20045;-73
2023/08/28 01:16:44;;;;;;;0.03;0.00;;;;;;;;;;5879373;28;20048;-72
2023/08/28 01:19:42;;;;;;;0.25;0.25;;;;;;;;;;5869949;28;20041;-72
2023/08/28 01:22:39;;;;;;;0.03;0.03;;;;;;;;;;5887300;28;20044;-71
2023/08/28 01:25:32;;;;;;;0.07;0.07;;;;;;;;;;5863320;28;20042;-72
2023/08/28 01:28:25;;;;;;;0.00;0.00;;;;;;;;;;5886071;28;20380;-71
2023/08/28 01:31:15;;;;;;;0.40;0.40;;;;;;;;;;5879302;28;20041;-72
2023/08/28 01:34:06;;;;;;;0.13;0.10;;;;;;;;;;5887280;28;20483;-71
2023/08/28 01:37:08;;;;;;;0.00;0.00;;;;;;;;;;5870028;28;20495;-71
2023/08/28 01:40:01;;;;;;;0.00;0.00;;;;;;;;;;5871379;28;20499;-71
2023/08/28 01:42:52;;;;;;;0.57;0.03;;;;;;;;;;5864333;28;20472;-73
2023/08/28 01:45:43;;;;;;;0.20;0.20;;;;;;;;;;5846230;28;20057;-71
2023/08/28 01:48:35;;;;;;;0.10;0.10;;;;;;;;;;5864184;28;20068;-73
2023/08/28 01:51:26;;;;;;;0.32;0.20;;;;;;;;;;5864086;28;20049;-71
2023/08/28 01:54:16;;;;;;;0.00;0.00;;;;;;;;;;5864068;28;20049;-72
2023/08/28 01:57:07;;;;;;;0.10;0.10;;;;;;;;;;5857732;28;20476;-72
2023/08/28 01:59:58;;;;;;;0.00;0.00;;;;;;;;;;5887716;28;20392;-72
2023/08/28 02:02:48;;;;;;;0.00;0.00;;;;;;;;;;5887242;28;20377;-72
2023/08/28 02:05:39;;;;;;;0.00;0.00;;;;;;;;;;5887119;28;20460;-72
2023/08/28 02:08:30;;;;;;;0.15;0.10;;;;;;;;;;5887063;28;20061;-72
2023/08/28 02:11:21;;;;;;;0.10;0.10;;;;;;;;;;5887109;28;20057;-71
2023/08/28 02:14:12;;;;;;;0.10;0.10;;;;;;;;;;5869321;28;20389;-71
2023/08/28 02:17:03;;;;;;;1.13;0.17;;;;;;;;;;5886948;28;20040;-71
2023/08/28 02:19:54;;;;;;;0.00;0.00;;;;;;;;;;5887305;28;20489;-71
2023/08/28 02:22:44;;;;;;;0.05;0.05;;;;;;;;;;5868979;28;20488;-72
2023/08/28 02:25:39;;;;;;;0.70;0.20;;;;;;;;;;5869170;28;20044;-72
2023/08/28 02:28:30;;;;;;;0.00;0.00;;;;;;;;;;5869789;28;20164;-71
2023/08/28 02:31:21;;;;;;;0.28;0.20;;;;;;;;;;5886773;28;20064;-72
2023/08/28 02:34:11;;;;;;;0.30;0.20;;;;;;;;;;5887343;28;20136;-72
2023/08/28 02:37:02;;;;;;;0.10;0.10;;;;;;;;;;5890972;28;20044;-71
2023/08/28 02:39:53;;;;;;;0.50;0.28;;;;;;;;;;5891391;28;20048;-71
2023/08/28 02:42:44;;;;;;;0.10;0.03;;;;;;;;;;5890827;28;20124;-71
2023/08/28 02:45:41;;;;;;;0.20;0.20;;;;;;;;;;5872923;28;20037;-72
2023/08/28 02:48:31;;;;;;;0.03;0.03;;;;;;;;;;5890961;28;20123;-72
2023/08/28 02:51:22;;;;;;;0.20;0.20;;;;;;;;;;5888022;28;20052;-71
2023/08/28 02:54:13;;;;;;;0.30;0.28;;;;;;;;;;5890660;28;20049;-72
2023/08/28 02:57:03;;;;;;;0.25;0.22;;;;;;;;;;5890460;28;20500;-73
2023/08/28 02:59:54;;;;;;;0.00;0.00;;;;;;;;;;5889464;28;20052;-72
2023/08/28 03:02:46;;;;;;;0.28;0.20;;;;;;;;;;5884029;28;20049;-71
2023/08/28 03:05:37;;;;;;;0.50;0.10;;;;;;;;;;5890192;28;20539;-72
2023/08/28 03:08:29;;;;;;;0.20;0.20;;;;;;;;;;5890231;28;20048;-73
2023/08/28 03:11:20;;;;;;;0.13;0.13;;;;;;;;;;5890310;28;20115;-72
2023/08/28 03:14:11;;;;;;;1.55;0.15;;;;;;;;;;5889961;28;20041;-72
2023/08/28 03:17:02;;;;;;;0.20;0.15;;;;;;;;;;5890084;28;20045;-72
2023/08/28 03:19:53;;;;;;;0.55;0.38;;;;;;;;;;5890496;28;20068;-72
2023/08/28 03:22:43;;;;;;;1.55;0.75;;;;;;;;;;5889922;28;20045;-73
2023/08/28 03:25:34;;;;;;;0.45;0.40;;;;;;;;;;5889938;28;20041;-74
2023/08/28 03:28:25;;;;;;;0.38;0.20;;;;;;;;;;5872326;28;20063;-73
2023/08/28 03:31:15;;;;;;;0.00;0.00;;;;;;;;;;5889563;28;20052;-72
2023/08/28 03:34:06;;;;;;;6.60;0.40;;;;;;;;;;5888949;28;20037;-73
2023/08/28 03:36:57;;;;;;;0.38;0.20;;;;;;;;;;5889487;28;20041;-72
2023/08/28 03:39:47;;;;;;;0.98;0.40;;;;;;;;;;5889340;28;20048;-72
2023/08/28 03:42:38;;;;;;;0.20;0.17;;;;;;;;;;5889538;28;20376;-73
2023/08/28 03:45:29;;;;;;;0.13;0.10;;;;;;;;;;5871462;28;20052;-73
2023/08/28 03:48:20;;;;;;;0.10;0.10;;;;;;;;;;5889617;28;20049;-71
2023/08/28 03:51:10;;;;;;;1.25;0.68;;;;;;;;;;5889117;28;20041;-73
2023/08/28 03:54:02;;;;;;;0.28;0.22;;;;;;;;;;5889451;28;20045;-72
2023/08/28 03:56:53;;;;;;;0.20;0.20;;;;;;;;;;5872031;28;20419;-73
2023/08/28 03:59:44;;;;;;;0.15;0.15;;;;;;;;;;5889112;28;20045;-73
2023/08/28 04:02:35;;;;;;;1.80;0.13;;;;;;;;;;5889293;28;20041;-73
2023/08/28 04:05:29;;;;;;;0.52;0.30;;;;;;;;;;5888927;28;20539;-72
2023/08/28 04:08:19;;;;;;;1.13;0.30;;;;;;;;;;5889127;28;20132;-72
2023/08/28 04:11:10;;;;;;;1.13;0.70;;;;;;;;;;5888812;28;20052;-73
2023/08/28 04:14:01;;;;;;;7.07;1.13;;;;;;;;;;5889000;28;20041;-73
2023/08/28 04:16:53;;;;;;;0.20;0.20;;;;;;;;;;5871560;28;20048;-72
2023/08/28 04:19:45;;;;;;;0.38;0.38;;;;;;;;;;5888549;28;20088;-73
2023/08/28 04:22:37;;;;;;;0.20;0.20;;;;;;;;;;5888965;28;20040;-72
2023/08/28 04:25:29;;;;;;;0.52;0.20;;;;;;;;;;5871015;28;20048;-74
2023/08/28 04:28:20;;;;;;;0.28;0.28;;;;;;;;;;5888647;28;20451;-72
2023/08/28 04:31:12;;;;;;;1.58;0.38;;;;;;;;;;5887712;28;20052;-72
2023/08/28 04:34:03;;;;;;;0.10;0.10;;;;;;;;;;5870777;28;20096;-73
2023/08/28 04:36:53;;;;;;;2.88;0.80;;;;;;;;;;5888636;28;20041;-73
2023/08/28 04:39:44;;;;;;;0.70;0.35;;;;;;;;;;5887913;28;20518;-73
2023/08/28 04:42:36;;;;;;;3.20;0.90;;;;;;;;;;5888326;28;20478;-73
2023/08/28 04:45:27;;;;;;;0.40;0.20;;;;;;;;;;5888130;28;20063;-72
2023/08/28 04:48:18;;;;;;;0.80;0.73;;;;;;;;;;5888318;28;20052;-72
2023/08/28 04:51:09;;;;;;;0.17;0.17;;;;;;;;;;5870383;28;20479;-72
2023/08/28 04:54:00;;;;;;;0.43;0.30;;;;;;;;;;5888816;28;20033;-72
2023/08/28 04:56:50;;;;;;;1.98;0.57;;;;;;;;;;5887967;28;20037;-72
2023/08/28 04:59:41;;;;;;;25.20;1.00;;;;;;;;;;5870069;28;20499;-72
2023/08/28 05:02:32;;;;;;;0.17;0.17;;;;;;;;;;5888012;28;20495;-72
2023/08/28 05:05:23;;;;;;;0.20;0.20;;;;;;;;;;5887984;28;20045;-73
2023/08/28 05:08:14;;;;;;;0.60;0.40;;;;;;;;;;5887792;28;20036;-73
2023/08/28 05:11:05;;;;;;;0.80;0.60;;;;;;;;;;5887601;28;20364;-72
2023/08/28 05:13:57;;;;;;;0.20;0.15;;;;;;;;;;5888189;28;20047;-72
2023/08/28 05:16:48;;;;;;;1.17;0.60;;;;;;;;;;5887455;28;20045;-71
2023/08/28 05:19:39;;;;;;;1.13;0.70;;;;;;;;;;5887598;28;20049;-72
2023/08/28 05:22:29;;;;;;;1.30;0.75;;;;;;;;;;5887398;28;20041;-72
2023/08/28 05:25:21;;;;;;;0.40;0.30;;;;;;;;;;5887367;28;20051;-73
2023/08/28 05:28:11;;;;;;;1.65;1.17;;;;;;;;;;5887447;28;20045;-73
2023/08/28 05:31:03;;;;;;;0.35;0.35;;;;;;;;;;5887308;28;20423;-71
2023/08/28 05:33:54;;;;;;;0.20;0.20;;;;;;;;;;5870285;28;20472;-72
2023/08/28 05:36:45;;;;;;;1.67;0.57;;;;;;;;;;5887072;28;20056;-71
2023/08/28 05:39:35;;;;;;;8.15;1.20;;;;;;;;;;5887226;28;20446;-72
2023/08/28 05:42:26;;;;;;;1.48;0.68;;;;;;;;;;5887316;28;20049;-71
2023/08/28 05:45:17;;;;;;;0.70;0.25;;;;;;;;;;5887015;28;20048;-70
2023/08/28 05:48:08;;;;;;;0.73;0.60;;;;;;;;;;5869298;28;20052;-70
2023/08/28 05:50:58;;;;;;;1.52;0.50;;;;;;;;;;5869644;28;20045;-69
2023/08/28 05:53:49;;;;;;;1.95;0.70;;;;;;;;;;5887003;28;20045;-69
2023/08/28 05:56:40;;;;;;;0.95;0.38;;;;;;;;;;5886831;28;20041;-71
2023/08/28 05:59:31;;;;;;;1.08;0.80;;;;;;;;;;5887030;28;20045;-69
2023/08/28 06:02:21;;;;;;;1.05;0.57;;;;;;;;;;5868959;28;20049;-70
2023/08/28 06:05:12;;;;;;;1.42;0.35;;;;;;;;;;5869126;28;20051;-70
2023/08/28 06:08:04;;;;;;;1.00;0.47;;;;;;;;;;5886754;28;20631;-69
2023/08/28 06:10:54;;;;;;;0.55;0.47;;;;;;;;;;5873388;28;20049;-70
2023/08/28 06:13:45;;;;;;;0.30;0.30;;;;;;;;;;5891438;28;20617;-70
2023/08/28 06:16:36;;;;;;;0.43;0.35;;;;;;;;;;5891328;28;20369;-69
2023/08/28 06:19:27;;;;;;;0.38;0.38;;;;;;;;;;5891012;28;20052;-70
2023/08/28 06:22:17;;;;;;;0.60;0.55;;;;;;;;;;5891211;28;20056;-70
2023/08/28 06:25:09;;;;;;;1.20;0.28;;;;;;;;;;5891179;28;20132;-70
2023/08/28 06:27:59;;;;;;;2.67;0.40;;;;;;;;;;5874148;28;20384;-70
2023/08/28 06:30:51;;;;;;;1.05;0.20;;;;;;;;;;5891568;28;20041;-69
2023/08/28 06:33:41;;;;;;;0.20;0.20;;;;;;;;;;5890925;28;20041;-70
2023/08/28 06:36:32;;;;;;;0.77;0.40;;;;;;;;;;5891103;28;20073;-72
2023/08/28 06:39:23;;;;;;;0.43;0.43;;;;;;;;;;5890865;28;20045;-71
2023/08/28 06:42:14;;;;;;;0.65;0.60;;;;;;;;;;5890925;28;20052;-71
2023/08/28 06:45:06;;;;;;;1.00;0.90;;;;;;;;;;5890964;28;20133;-71
2023/08/28 06:47:57;;;;;;;3.55;0.63;;;;;;;;;;5891234;28;20041;-71
2023/08/28 06:50:51;;;;;;;0.75;0.65;;;;;;;;;;5890780;28;20041;-71
2023/08/28 06:53:42;;;;;;;0.43;0.43;;;;;;;;;;5872808;28;20452;-70
2023/08/28 06:56:32;;;;;;;4.30;1.55;;;;;;;;;;5890495;28;20076;-72
2023/08/28 06:59:23;;;;;;;1.77;0.75;;;;;;;;;;5890273;28;20072;-70
2023/08/28 07:02:14;;;;;;;0.30;0.30;;;;;;;;;;5890460;28;20076;-72
2023/08/28 07:05:05;;;;;;;1.20;0.80;;;;;;;;;;5890384;28;20057;-70
2023/08/28 07:07:56;;;;;;;0.52;0.52;;;;;;;;;;5890740;28;20041;-70
2023/08/28 07:10:47;;;;;;;0.52;0.52;;;;;;;;;;5890294;28;20472;-71
2023/08/28 07:13:37;;;;;;;2.17;1.17;;;;;;;;;;5872544;28;20036;-71
2023/08/28 07:16:28;;;;;;;2.97;0.90;;;;;;;;;;5889917;28;20044;-71
2023/08/28 07:19:19;;;;;;;1.48;1.27;;;;;;;;;;5889751;28;20045;-71
2023/08/28 07:22:10;;;;;;;2.85;0.98;;;;;;;;;;5888993;28;20060;-71
2023/08/28 07:25:01;;;;;;;1.42;1.10;;;;;;;;;;5889736;28;20052;-73
2023/08/28 07:27:52;;;;;;;2.30;1.15;;;;;;;;;;5889771;28;20044;-71
2023/08/28 07:30:43;;;;;;;1.05;0.70;;;;;;;;;;5889468;28;20045;-71
2023/08/28 07:33:34;;;;;;;1.23;0.85;;;;;;;;;;5889149;28;20040;-71
2023/08/28 07:36:24;;;;;;;3.10;1.15;;;;;;;;;;5889504;28;20041;-71
2023/08/28 07:39:15;;;;;;;3.72;1.00;;;;;;;;;;5889061;28;20076;-70
2023/08/28 07:42:06;;;;;;;0.70;0.57;;;;;;;;;;5889046;28;20045;-72
2023/08/28 07:44:57;;;;;;;5.82;1.60;;;;;;;;;;5872284;28;20045;-71
2023/08/28 07:47:47;;;;;;;1.00;0.60;;;;;;;;;;5888787;28;20045;-70
2023/08/28 07:50:40;;;;;;;0.93;0.82;;;;;;;;;;5889176;28;20037;-71
2023/08/28 07:53:30;;;;;;;0.93;0.50;;;;;;;;;;5871408;28;20045;-70
2023/08/28 07:56:21;;;;;;;0.52;0.47;;;;;;;;;;5889015;28;20455;-71
2023/08/28 07:59:12;;;;;;;1.00;0.77;;;;;;;;;;5888748;28;20045;-70
2023/08/28 08:02:07;;;;;;;0.60;0.47;;;;;;;;;;5888825;28;20047;-70
2023/08/28 08:04:58;;;;;;;0.57;0.57;;;;;;;;;;5889485;28;20037;-70
2023/08/28 08:07:49;;;;;;;1.40;0.40;;;;;;;;;;5888392;28;20048;-70
2023/08/28 08:10:40;;;;;;;1.95;0.63;;;;;;;;;;5888910;28;20053;-71
2023/08/28 08:13:30;;;;;;;1.02;0.70;;;;;;;;;;5888763;28;20037;-71
2023/08/28 08:16:21;;;;;;;6.32;2.60;;;;;;;;;;5871049;28;20047;-70
2023/08/28 08:19:12;;;;;;;10.90;5.28;;;;;;;;;;5870974;28;20526;-71
2023/08/28 08:22:04;;;;;;;3.10;2.05;;;;;;;;;;5888727;28;20453;-70
2023/08/28 08:24:55;;;;;;;1.98;1.20;;;;;;;;;;5889158;28;20037;-70
2023/08/28 08:27:47;;;;;;;1.10;0.75;;;;;;;;;;5870831;28;20052;-72
2023/08/28 08:30:37;;;;;;;4.93;1.85;;;;;;;;;;5888606;28;20487;-71
2023/08/28 08:33:28;;;;;;;2.15;1.25;;;;;;;;;;5887433;28;20171;-71
2023/08/28 08:36:19;;;;;;;2.58;1.60;;;;;;;;;;5870653;28;20052;-71
2023/08/28 08:39:10;;;;;;;3.05;1.20;;;;;;;;;;5888135;28;20622;-71
2023/08/28 08:42:01;;;;;;;0.85;0.70;;;;;;;;;;5888269;28;20043;-73
2023/08/28 08:44:52;;;;;;;2.88;0.63;;;;;;;;;;5888733;28;20033;-71
2023/08/28 08:47:50;;;;;;;0.60;0.52;;;;;;;;;;5853755;28;20044;-71
2023/08/28 08:50:42;;;;;;;;;;;;;;;;;;5888469;28;20107;-70
2023/08/28 08:54:04;;;;;;;0.63;0.30;;;;;;;;;;5870282;28;19943;-71
2023/08/28 08:57:00;;;;;;;0.73;0.60;;;;;;;;;;5887733;28;20166;-70
2023/08/28 08:59:52;;;;;;;1.98;0.95;;;;;;;;;;5870649;28;20391;-70
2023/08/28 09:02:44;;;;;;;0.90;0.65;;;;;;;;;;5887415;28;20037;-70
2023/08/28 09:05:38;;;;;;;8.82;0.52;;;;;;;;;;5887814;28;20094;-68
2023/08/28 09:08:30;;;;;;;0.77;0.55;;;;;;;;;;5869971;28;20411;-69
2023/08/28 09:11:21;;;;;;;1.85;0.73;;;;;;;;;;5870138;28;20476;-69
2023/08/28 09:14:12;;;;;;;0.52;0.40;;;;;;;;;;5887555;28;20052;-71
2023/08/28 09:17:03;;;;;;;0.22;0.22;;;;;;;;;;5887406;28;20057;-69
2023/08/28 09:19:54;;;;;;;1.00;0.70;;;;;;;;;;5887778;28;20329;-70
2023/08/28 09:22:51;;;;;;;1.02;0.90;;;;;;;;;;5887416;28;20045;-70
2023/08/28 09:25:44;;;;;;;1.17;0.75;;;;;;;;;;5870348;28;20538;-70
2023/08/28 09:28:34;;;;;;;1.08;0.98;;;;;;;;;;5887145;28;20036;-71
2023/08/28 09:31:32;;;;;;;2.22;1.13;;;;;;;;;;5869296;28;20081;-69
2023/08/28 09:34:39;;;;;;;1.13;0.57;;;;;;;;;;5869609;28;20051;-69
2023/08/28 09:37:29;;;;;;;2.05;0.93;;;;;;;;;;5887196;28;20061;-70
2023/08/28 09:40:32;;;;;;;0.60;0.60;;;;;;;;;;5887335;28;20049;-70
2023/08/28 09:43:23;;;;;;;0.93;0.70;;;;;;;;;;5888955;28;20060;-70
2023/08/28 09:46:14;;;;;;;0.95;0.65;;;;;;;;;;5894832;28;20041;-69
2023/08/28 09:49:07;;;;;;;1.00;0.82;;;;;;;;;;5894889;28;20052;-70
2023/08/28 09:52:00;;;;;;;5.18;1.42;;;;;;;;;;5877881;28;20114;-70
2023/08/28 09:55:07;;;;;;;2.95;1.73;;;;;;;;;;5895147;28;20036;-70
2023/08/28 09:57:58;;;;;;;1.38;1.02;;;;;;;;;;5878464;28;20045;-71
2023/08/28 10:00:50;;;;;;;1.08;0.77;;;;;;;;;;5894780;28;20056;-69
2023/08/28 10:03:41;;;;;;;3.08;1.40;;;;;;;;;;5877096;28;20037;-70
2023/08/28 10:06:35;;;;;;;0.68;0.63;;;;;;;;;;5877137;28;20033;-71
2023/08/28 10:09:29;;;;;;;1.60;1.17;;;;;;;;;;5894599;28;20053;-70
2023/08/28 10:12:22;;;;;;;2.17;1.70;;;;;;;;;;5877225;28;20048;-70
2023/08/28 10:15:13;;;;;;;1.05;0.68;;;;;;;;;;5876928;28;20056;-71
2023/08/28 10:18:11;;;;;;;1.33;0.60;;;;;;;;;;5894512;28;20041;-70
2023/08/28 10:21:04;;;;;;;1.55;1.08;;;;;;;;;;5894728;28;20041;-70
2023/08/28 10:23:55;;;;;;;1.70;1.38;;;;;;;;;;5877284;28;20041;-71
2023/08/28 10:26:47;;;;;;;0.73;0.73;;;;;;;;;;5876690;28;20415;-70
2023/08/28 10:29:40;;;;;;;1.33;1.00;;;;;;;;;;5876801;28;20047;-70
2023/08/28 10:32:32;;;;;;;0.77;0.57;;;;;;;;;;5894299;28;20474;-71
2023/08/28 10:35:24;;;;;;;3.97;1.00;;;;;;;;;;5876869;28;20454;-70
2023/08/28 10:38:17;;;;;;;1.05;0.77;;;;;;;;;;5894061;28;20041;-70
2023/08/28 10:41:09;;;;;;;0.68;0.50;;;;;;;;;;5876593;28;20474;-71
2023/08/28 10:44:01;;;;;;;0.60;0.52;;;;;;;;;;5894764;28;20044;-71
2023/08/28 10:46:52;;;;;;;0.43;0.40;;;;;;;;;;5876794;28;20049;-72
2023/08/28 10:49:43;;;;;;;1.25;0.80;;;;;;;;;;5876594;28;20512;-71
2023/08/28 10:52:34;;;;;;;1.75;0.98;;;;;;;;;;5876538;28;20372;-70
2023/08/28 10:55:26;;;;;;;4.68;0.77;;;;;;;;;;5891801;28;20384;-72
2023/08/28 10:58:17;;;;;;;0.88;0.50;;;;;;;;;;5844046;28;20141;-71
2023/08/28 11:01:16;;;;;;;1.13;0.90;;;;;;;;;;5884623;28;20056;-70
2023/08/28 11:04:16;;;;;;;0.45;0.45;;;;;;;;;;5872702;28;20047;-71
2023/08/28 11:07:30;;;;;;;0.60;0.57;;;;;;;;;;5890392;28;20064;-72
2023/08/28 11:10:25;;;;;;;0.82;0.63;;;;;;;;;;5890456;28;20060;-71
2023/08/28 11:13:21;;;;;;;1.10;0.75;;;;;;;;;;5890198;28;20068;-72
2023/08/28 11:16:24;;;;;;;1.02;0.93;;;;;;;;;;5872700;28;20139;-70
2023/08/28 11:19:17;;;;;;;1.20;0.82;;;;;;;;;;5890238;28;20392;-71
2023/08/28 11:22:08;;;;;;;3.15;1.23;;;;;;;;;;5890064;28;20510;-71
2023/08/28 11:25:01;;;;;;;1.17;0.98;;;;;;;;;;5890635;28;20484;-71
2023/08/28 11:27:56;;;;;;;0.82;0.70;;;;;;;;;;5872778;28;20396;-72
2023/08/28 11:30:48;;;;;;;0.65;0.57;;;;;;;;;;5889868;28;20123;-71
2023/08/28 11:33:45;;;;;;;3.60;0.77;;;;;;;;;;5872124;28;20369;-71
2023/08/28 11:36:39;;;;;;;2.30;0.85;;;;;;;;;;5872752;28;20047;-72
2023/08/28 11:39:30;;;;;;;1.50;0.93;;;;;;;;;;5872198;28;20372;-72
2023/08/28 11:42:23;;;;;;;0.70;0.50;;;;;;;;;;5884242;28;20057;-71
2023/08/28 11:45:22;;;;;;;0.65;0.63;;;;;;;;;;5886978;28;20496;-70
2023/08/28 11:48:16;;;;;;;0.65;0.65;;;;;;;;;;5872425;28;20049;-71
2023/08/28 11:51:08;;;;;;;0.95;0.70;;;;;;;;;;5889525;28;20041;-72
2023/08/28 11:53:59;;;;;;;3.33;1.13;;;;;;;;;;5872306;28;20381;-72
2023/08/28 11:56:53;;;;;;;0.80;0.60;;;;;;;;;;5888351;28;20045;-71
2023/08/28 11:59:48;;;;;;;1.15;0.98;;;;;;;;;;5865378;28;20560;-70
2023/08/28 12:02:42;;;;;;;0.82;0.65;;;;;;;;;;5871854;28;20045;-72
2023/08/28 12:05:33;;;;;;;0.85;0.82;;;;;;;;;;5871604;28;20044;-71
2023/08/28 12:08:24;;;;;;;5.88;1.10;;;;;;;;;;5879577;28;20468;-72
2023/08/28 12:11:18;;;;;;;2.70;1.00;;;;;;;;;;5871454;28;20476;-72
2023/08/28 12:14:16;;;;;;;1.27;1.08;;;;;;;;;;5888762;28;20045;-71
2023/08/28 12:17:07;;;;;;;2.08;1.02;;;;;;;;;;5888550;28;20515;-71
2023/08/28 12:19:58;;;;;;;2.67;1.63;;;;;;;;;;5867798;28;20041;-71
2023/08/28 12:22:49;;;;;;;0.80;0.80;;;;;;;;;;5879693;28;20056;-71
2023/08/28 12:25:43;;;;;;;1.20;1.10;;;;;;;;;;5888221;28;20045;-71
2023/08/28 12:28:34;;;;;;;1.90;1.27;;;;;;;;;;5853499;28;20063;-72
2023/08/28 12:31:31;;;;;;;1.67;1.23;;;;;;;;;;5882736;28;20048;-71
2023/08/28 12:34:28;;;;;;;0.75;0.75;;;;;;;;;;5893420;28;20451;-71
2023/08/28 12:37:19;;;;;;;1.83;1.48;;;;;;;;;;5911211;28;20154;-72
2023/08/28 12:40:11;;;;;;;1.98;1.25;;;;;;;;;;5908813;28;20049;-72
2023/08/28 12:43:11;;;;;;;2.30;1.70;;;;;;;;;;5887896;28;20055;-71
2023/08/28 12:46:02;;;;;;;1.00;0.93;;;;;;;;;;5857512;28;20100;-72
2023/08/28 12:48:53;;;;;;;1.80;1.35;;;;;;;;;;5862424;28;20060;-74
2023/08/28 12:51:45;;;;;;;1.05;0.70;;;;;;;;;;5840906;28;20048;-71
2023/08/28 12:54:38;;;;;;;5.45;1.45;;;;;;;;;;5885645;28;20053;-72
2023/08/28 12:57:29;;;;;;;2.25;1.33;;;;;;;;;;5854035;28;20045;-71
2023/08/28 13:00:20;;;;;;;1.38;1.27;;;;;;;;;;5866523;28;20058;-72
2023/08/28 13:03:10;;;;;;;2.25;1.25;;;;;;;;;;5904757;28;20049;-70
2023/08/28 13:06:02;;;;;;;1.10;1.00;;;;;;;;;;5888202;28;20041;-73
2023/08/28 13:08:53;;;;;;;2.38;1.20;;;;;;;;;;5853152;28;20059;-72
2023/08/28 13:11:44;;;;;;;0.85;0.85;;;;;;;;;;5881368;28;20063;-72
2023/08/28 13:14:35;;;;;;;3.83;2.03;;;;;;;;;;5883613;28;20036;-71
2023/08/28 13:17:26;;;;;;;1.20;1.10;;;;;;;;;;5881067;28;20053;-70
2023/08/28 13:20:17;;;;;;;2.70;2.05;;;;;;;;;;5884496;28;20472;-70
2023/08/28 13:23:08;;;;;;;1.15;1.00;;;;;;;;;;5907052;28;20348;-72
2023/08/28 13:25:59;;;;;;;2.05;0.82;;;;;;;;;;5888801;28;20053;-71
2023/08/28 13:28:50;;;;;;;1.02;0.70;;;;;;;;;;5878768;28;20047;-70
2023/08/28 13:31:41;;;;;;;1.58;0.85;;;;;;;;;;5884872;28;20045;-72
2023/08/28 13:34:31;;;;;;;5.47;1.27;;;;;;;;;;5878931;28;20040;-73
2023/08/28 13:37:22;;;;;;;1.60;1.15;;;;;;;;;;5892138;28;20043;-71
2023/08/28 13:40:13;;;;;;;1.30;1.10;;;;;;;;;;5908917;28;20049;-72
2023/08/28 13:43:04;;;;;;;2.17;1.30;;;;;;;;;;5886860;28;20045;-72
2023/08/28 13:45:56;;;;;;;1.02;0.60;;;;;;;;;;5850963;28;20135;-71
2023/08/28 13:48:47;;;;;;;3.33;1.35;;;;;;;;;;5844286;28;20538;-72
2023/08/28 13:51:37;;;;;;;3.30;0.95;;;;;;;;;;5884373;28;20045;-72
2023/08/28 13:54:28;;;;;;;1.00;0.90;;;;;;;;;;5869992;28;20057;-71
2023/08/28 13:57:19;;;;;;;1.73;1.23;;;;;;;;;;5887100;28;20415;-72
2023/08/28 14:00:14;;;;;;;1.75;1.00;;;;;;;;;;5882411;28;20053;-72
2023/08/28 14:03:06;;;;;;;1.40;0.93;;;;;;;;;;5887970;28;20076;-72
2023/08/28 14:06:04;;;;;;;1.23;1.08;;;;;;;;;;5891665;28;20041;-71
2023/08/28 14:08:55;;;;;;;1.75;1.48;;;;;;;;;;5876208;28;20479;-72
2023/08/28 14:11:46;;;;;;;1.95;1.38;;;;;;;;;;5882526;28;20060;-71
2023/08/28 14:14:36;;;;;;;1.17;1.08;;;;;;;;;;5881731;28;20395;-72
2023/08/28 14:17:27;;;;;;;1.15;0.75;;;;;;;;;;5894667;28;20040;-73
2023/08/28 14:20:18;;;;;;;1.50;1.13;;;;;;;;;;5892517;28;20135;-72
2023/08/28 14:23:09;;;;;;;1.25;0.98;;;;;;;;;;5888770;28;20055;-71
2023/08/28 14:26:03;;;;;;;10.38;6.15;;;;;;;;;;5868665;28;20040;-73
2023/08/28 14:28:53;;;;;;;5.80;3.58;;;;;;;;;;5886346;28;20049;-75
2023/08/28 14:31:44;;;;;;;9.45;4.00;;;;;;;;;;5877651;28;20044;-72
2023/08/28 14:34:35;;;;;;;17.50;7.25;;;;;;;;;;5877908;28;20487;-73
2023/08/28 14:37:26;;;;;;;2.92;1.88;;;;;;;;;;5890661;28;20037;-72
2023/08/28 14:40:16;;;;;;;0.98;0.88;;;;;;;;;;5872916;28;20049;-72
2023/08/28 14:43:16;;;;;;;1.83;0.77;;;;;;;;;;5890412;28;20452;-72
2023/08/28 14:46:07;;;;;;;2.95;1.60;;;;;;;;;;5872813;28;20051;-73
2023/08/28 14:48:57;;;;;;;1.77;1.45;;;;;;;;;;5890761;28;20047;-71
2023/08/28 14:51:48;;;;;;;1.95;1.40;;;;;;;;;;5861041;28;20051;-71
2023/08/28 14:54:39;;;;;;;4.05;1.90;;;;;;;;;;5877939;28;20051;-72
2023/08/28 14:57:29;;;;;;;2.95;1.40;;;;;;;;;;5890276;28;20114;-72
2023/08/28 15:00:20;;;;;;;4.93;1.52;;;;;;;;;;5890073;28;20450;-73
2023/08/28 15:03:11;;;;;;;2.00;1.30;;;;;;;;;;5871794;28;20041;-71
2023/08/28 15:06:02;;;;;;;0.82;0.73;;;;;;;;;;5890288;28;20495;-71
2023/08/28 15:08:53;;;;;;;2.03;1.40;;;;;;;;;;5856135;28;20126;-72
2023/08/28 15:11:44;;;;;;;2.42;1.00;;;;;;;;;;5879291;28;20124;-72
2023/08/28 15:14:35;;;;;;;9.48;2.88;;;;;;;;;;5859345;28;20041;-73
2023/08/28 15:17:26;;;;;;;2.33;1.35;;;;;;;;;;5889962;28;20052;-71
2023/08/28 15:20:17;;;;;;;1.98;1.35;;;;;;;;;;5889736;28;20041;-71
2023/08/28 15:23:07;;;;;;;2.10;1.30;;;;;;;;;;5871784;28;20099;-73
2023/08/28 15:25:58;;;;;;;1.92;1.42;;;;;;;;;;5890061;28;20041;-72
2023/08/28 15:28:49;;;;;;;1.35;0.80;;;;;;;;;;5889475;28;20080;-72
2023/08/28 15:31:39;;;;;;;1.20;0.60;;;;;;;;;;5889328;28;20044;-71
2023/08/28 15:34:30;;;;;;;1.40;1.05;;;;;;;;;;5871941;28;20044;-72
2023/08/28 15:37:21;;;;;;;1.25;0.85;;;;;;;;;;5889675;28;20053;-73
2023/08/28 15:40:12;;;;;;;0.93;0.88;;;;;;;;;;5889797;28;20053;-74
2023/08/28 15:43:03;;;;;;;1.42;1.10;;;;;;;;;;5873396;28;20061;-72
2023/08/28 15:45:54;;;;;;;1.13;0.93;;;;;;;;;;5889648;28;20052;-74
2023/08/28 15:48:45;;;;;;;5.82;1.70;;;;;;;;;;5889111;28;20037;-71
2023/08/28 15:51:36;;;;;;;2.13;0.90;;;;;;;;;;5889003;28;20043;-71
2023/08/28 15:54:26;;;;;;;2.65;1.42;;;;;;;;;;5853051;28;20473;-72
2023/08/28 15:57:17;;;;;;;6.55;2.03;;;;;;;;;;5878585;28;20191;-72
2023/08/28 16:00:09;;;;;;;1.40;1.00;;;;;;;;;;5889025;28;20045;-72
2023/08/28 16:03:00;;;;;;;3.55;1.15;;;;;;;;;;5848573;28;20044;-75
2023/08/28 16:05:52;;;;;;;5.22;1.98;;;;;;;;;;5850000;28;20134;-72
2023/08/28 16:08:43;;;;;;;2.65;1.40;;;;;;;;;;5888520;28;20064;-72
2023/08/28 16:11:33;;;;;;;2.00;1.05;;;;;;;;;;5870971;28;20052;-72
2023/08/28 16:14:24;;;;;;;2.13;1.27;;;;;;;;;;5871118;28;20042;-71
2023/08/28 16:17:15;;;;;;;14.25;1.77;;;;;;;;;;5877862;28;20468;-72
2023/08/28 16:20:06;;;;;;;2.08;1.67;;;;;;;;;;5888634;28;20179;-73
2023/08/28 16:22:57;;;;;;;2.55;1.10;;;;;;;;;;5888230;28;20071;-72
2023/08/28 16:25:48;;;;;;;1.25;0.93;;;;;;;;;;5888447;28;20055;-71
2023/08/28 16:28:39;;;;;;;0.95;0.68;;;;;;;;;;5888142;28;20400;-71
2023/08/28 16:31:29;;;;;;;1.33;1.23;;;;;;;;;;5888192;28;20047;-71
2023/08/28 16:34:20;;;;;;;2.70;1.27;;;;;;;;;;5854218;28;20053;-72
2023/08/28 16:37:11;;;;;;;1.38;1.05;;;;;;;;;;5876926;28;20044;-71
2023/08/28 16:40:02;;;;;;;1.55;0.85;;;;;;;;;;5870617;28;20407;-71
2023/08/28 16:42:53;;;;;;;1.90;1.15;;;;;;;;;;5866495;28;20049;-72
2023/08/28 16:45:44;;;;;;;1.77;1.13;;;;;;;;;;5847136;28;20048;-71
2023/08/28 16:48:34;;;;;;;1.85;0.70;;;;;;;;;;5859120;28;20400;-72
2023/08/28 16:51:25;;;;;;;4.72;1.10;;;;;;;;;;5863928;28;20400;-71
2023/08/28 16:54:16;;;;;;;1.45;0.98;;;;;;;;;;5863771;28;20060;-72
2023/08/28 16:57:07;;;;;;;1.20;0.98;;;;;;;;;;5864129;28;20037;-72
2023/08/28 16:59:58;;;;;;;11.15;1.08;;;;;;;;;;5863963;28;20034;-73
2023/08/28 17:02:52;;;;;;;1.08;0.90;;;;;;;;;;5869347;28;20080;-72
2023/08/28 17:05:50;;;;;;;2.83;1.13;;;;;;;;;;5887311;28;20525;-71
2023/08/28 17:08:41;;;;;;;2.55;1.08;;;;;;;;;;5886654;28;20412;-72
2023/08/28 17:11:32;;;;;;;2.58;1.05;;;;;;;;;;5861813;28;20507;-71